Nearby METAR Reports

METAR is the scheduled surface weather observation taken hourly at civil and military airport locations.

METAR is an acronym from the French language and roughly translates as Aviation Routine Weather Report.

 

EGPL - Benbecula Island, United Kingdom
Distance from station: WNW 41mi, 66km
Updated: 24/09/2018 01:20
Partly cloudy
Partly cloudy
 Wind from NW
Wind: NW 17 mph , 28 km/h, Gust: 32 mph , 52 km/h
Temperature: 10°C
Wind Chill: 7°C
Dew Point: 6°C
Humidity: 76%
Barometer: 1031 hPa
Clouds: Partly cloudy
Visibility: 6 miles , 10 km
Cloud details: Partly cloudy 823 m
2018/09/24 00:20 EGPL 240020Z AUTO 31015G28KT 9999 SCT027/// 10/06 Q1031
EGPU - Tiree Island, United Kingdom
Distance from station: SSW 56mi, 90km
Updated: 24/09/2018 01:20
Few Clouds
Few Clouds
 Wind from WNW
Wind: WNW 15 mph , 24 km/h
Temperature: 10°C
Wind Chill: 7°C
Dew Point: 6°C
Humidity: 76%
Barometer: 1032 hPa
Clouds: Few Clouds
Visibility: 6 miles , 10 km
Cloud details: Few Clouds 853 m
2018/09/24 00:20 EGPU 240020Z AUTO 29013KT 9999 FEW028/// 10/06 Q1032
 
EGEO - Oban Airport, United Kingdom
Distance from station: SE 65mi, 105km
Updated: 23/09/2018 15:20
NOT Current
Partly cloudy
Partly cloudy
 Wind from NW
Wind: NW 14 mph , 22 km/h
Temperature: 11°C
Dew Point: 6°C
Humidity: 72%
Barometer: 1024 hPa
Clouds: Partly cloudy
Visibility: 6 miles , 10 km
Cloud details: Partly cloudy 1097 m
2018/09/23 14:20 EGEO 231420Z 32012KT 9999 SCT036 11/06 Q1024
EGPO - Stornoway, United Kingdom
Distance from station: 0 66mi, 106km
Updated: 24/09/2018 01:20
Few Clouds
Few Clouds
 Wind from W
Wind: W 6 mph , 9 km/h
Temperature: 5°C
Wind Chill: 3°C
Dew Point: 4°C
Humidity: 93%
Barometer: 1029 hPa
Clouds: Few Clouds
Visibility: 6 miles , 10 km
Cloud details: Few Clouds 1189 m
2018/09/24 00:20 EGPO 240020Z AUTO 26005KT 240V300 9999 FEW039/// 05/04 Q1029
 
EGPE - Inverness/Dalcro, United Kingdom
Distance from station: ENE 88mi, 141km
Updated: 24/09/2018 01:20
Mostly cloudy
Mostly cloudy
 Wind from SW
Wind: SW 12 mph , 19 km/h
Temperature: 5°C
Wind Chill: 1°C
Dew Point: 3°C
Humidity: 87%
Barometer: 1030 hPa
Clouds: Mostly cloudy
Visibility: 6 miles , 10 km
Cloud details: Mostly cloudy 1341 m
2018/09/24 00:20 EGPE 240020Z AUTO 23010KT 9999 BKN044/// 05/03 Q1030
EGQA - Tain Range (saws, United Kingdom
Distance from station: ENE 97mi, 156km
Updated: 21/09/2018 12:50
NOT Current
Rain showers, Partly cloudy
Rain showers, Partly cloudy
 Wind from WNW
Wind: WNW 22 mph , 35 km/h
Summary: Rain Showers
Clouds: Partly cloudy
Visibility: 6 miles , 10 km
Cloud details: Few Clouds 366 m
Partly cloudy 610 m
2018/09/21 11:50 EGQA 211150Z 30019KT 9999 SHRA FEW012 SCT020 10/// Q0997 WHT
 
EGQK - Kinloss Raf, United Kingdom
Distance from station: ENE 107mi, 171km
Updated: 24/09/2018 00:50
Clear
Clear
 Wind from WSW
Wind: WSW 13 mph , 20 km/h
Temperature: 7°C
Wind Chill: 4°C
Dew Point: 3°C
Humidity: 76%
Barometer: 1029 hPa
Clouds: Clear
Visibility: 6 miles , 10 km
2018/09/23 23:50 EGQK 232350Z AUTO 24011KT 9999 NCD 07/03 Q1029
EGPI - Islay/Port Ellen, United Kingdom
Distance from station: S 110mi, 177km
Updated: 24/09/2018 01:20
Few Clouds
Few Clouds
 Wind from WNW
Wind: WNW 16 mph , 26 km/h
Temperature: 10°C
Wind Chill: 7°C
Dew Point: 6°C
Humidity: 76%
Clouds: Few Clouds
Visibility: 6 miles , 10 km
Cloud details: Few Clouds 884 m
2018/09/24 00:20 EGPI 240020Z AUTO 30014KT 9999 FEW029/// 10/06
 
EGQS - Lossiemouth Raf, United Kingdom
Distance from station: ENE 117mi, 188km
Updated: 24/09/2018 00:50
Few Clouds
Few Clouds
 Wind from WSW
Wind: WSW 14 mph , 22 km/h
Temperature: 6°C
Wind Chill: 2°C
Dew Point: 3°C
Humidity: 81%
Barometer: 1028 hPa
Clouds: Few Clouds
Visibility: 6 miles , 10 km
Cloud details: Few Clouds 610 m
2018/09/23 23:50 EGQS 232350Z 25012KT 9999 FEW020 06/03 Q1028 BLU
EGPF - Glasgow Airport, United Kingdom
Distance from station: SE 121mi, 195km
Updated: 24/09/2018 01:20
Clear
Clear
 Wind from W
Wind: W 8 mph , 13 km/h
Temperature: 7°C
Wind Chill: 5°C
Dew Point: 4°C
Humidity: 81%
Barometer: 1032 hPa
Clouds: Clear
Visibility: 6 miles , 10 km
2018/09/24 00:20 EGPF 240020Z AUTO 28007KT 9999 NCD 07/04 Q1032
 
EGEC - Campbeltown, United Kingdom
Distance from station: SSE 129mi, 207km
Updated: 23/09/2018 18:20
NOT Current
Partly cloudy
Partly cloudy
 Wind from NNW
Wind: NNW 22 mph , 35 km/h
Temperature: 11°C
Dew Point: 5°C
Humidity: 67%
Barometer: 1027 hPa
Clouds: Partly cloudy
Visibility: 6 miles , 10 km
Cloud details: Few Clouds 488 m
Partly cloudy 1006 m
2018/09/23 17:20 EGEC 231720Z 33019KT 9999 FEW016CB SCT033 11/05 Q1027
EGPN - Dundee/Riverside, United Kingdom
Distance from station: ESE 137mi, 221km
Updated: 23/09/2018 20:20
NOT Current
Few Clouds
Few Clouds
 Wind from NW
Wind: NW 15 mph , 24 km/h
Temperature: 10°C
Wind Chill: 7°C
Dew Point: 3°C
Humidity: 62%
Barometer: 1027 hPa
Clouds: Few Clouds
Visibility: 6 miles , 10 km
Cloud details: Few Clouds 1219 m
2018/09/23 19:20 EGPN 231920Z 31013KT 9999 FEW040 10/03 Q1027
 
EGPK - Prestwick(Civ/Na, United Kingdom
Distance from station: SSE 139mi, 224km
Updated: 24/09/2018 00:50
Few Clouds
Few Clouds
 Wind from NNW
Wind: NNW 6 mph , 9 km/h
Temperature: 8°C
Wind Chill: 6°C
Dew Point: 4°C
Humidity: 76%
Barometer: 1033 hPa
Clouds: Few Clouds
Visibility: 6 miles , 10 km
Cloud details: Few Clouds 1219 m
2018/09/23 23:50 EGPK 232350Z 33005KT 9999 FEW040 08/04 Q1033
EGQL - Leuchars Raf, United Kingdom
Distance from station: ESE 145mi, 233km
Updated: 24/09/2018 00:50
Clear
Clear
 Wind from WSW
Wind: WSW 3 mph , 6 km/h
Temperature: 6°C
Dew Point: 2°C
Humidity: 76%
Barometer: 1030 hPa
Summary: Clear
Visibility: greater than 7 miles , 10 km
2018/09/23 23:50 EGQL 232350Z 25003KT CAVOK 06/02 Q1030 BLU
 
EGPH - Edinburgh Airpor, United Kingdom
Distance from station: SE 145mi, 234km
Updated: 24/09/2018 01:20
Clear
Clear
 Wind from SW
Wind: SW 6 mph , 9 km/h
Temperature: 3°C
Wind Chill: 0°C
Dew Point: 2°C
Humidity: 93%
Barometer: 1031 hPa
Summary: Clear
Visibility: greater than 7 miles , 10 km
2018/09/24 00:20 EGPH 240020Z 23005KT CAVOK 03/02 Q1031
EGPC - Wick, United Kingdom
Distance from station: NE 146mi, 234km
Updated: 24/09/2018 01:20
Partly cloudy
Partly cloudy
 Wind from WNW
Wind: WNW 10 mph , 17 km/h
Temperature: 7°C
Wind Chill: 4°C
Dew Point: 5°C
Humidity: 87%
Barometer: 1027 hPa
Clouds: Partly cloudy
Visibility: 6 miles , 10 km
Cloud details: Few Clouds 1006 m
Partly cloudy 1219 m
2018/09/24 00:20 EGPC 240020Z AUTO 30009KT 9999 FEW033/// SCT040/// 07/05 Q1027

-

free counters
QR Code Twitter Scottish Weather Network UK Weather Network
Argyll House B & B

Argyll House B & B is situated in North West Skye and is the perfect base to see all that the Isle of Skye has to offer.
We are now full for 2018 - Bookings been taken for 2019.